createdAt,value
2022-08-30T00:00:30.164Z,94.81
2022-08-30T00:03:06.499Z,94.74
2022-08-30T00:05:35.495Z,94.92
2022-08-30T00:08:05.000Z,94.93
2022-08-30T00:10:33.587Z,94.96
2022-08-30T00:13:03.029Z,94.80
2022-08-30T00:15:31.964Z,95.03
2022-08-30T00:18:00.703Z,94.97
2022-08-30T00:20:32.589Z,95.13
2022-08-30T00:23:01.945Z,95.08
2022-08-30T00:25:30.569Z,95.27
2022-08-30T00:27:59.659Z,95.36
2022-08-30T00:30:28.193Z,95.54
2022-08-30T00:32:58.396Z,95.65
2022-08-30T00:35:27.038Z,95.83
2022-08-30T00:37:55.570Z,95.87
2022-08-30T00:40:27.322Z,95.78
2022-08-30T00:42:59.696Z,95.80
2022-08-30T00:45:33.057Z,95.90
2022-08-30T00:48:01.823Z,95.89
2022-08-30T00:50:35.734Z,95.87
2022-08-30T00:53:09.061Z,95.87
2022-08-30T00:55:39.095Z,95.90
2022-08-30T00:58:19.317Z,95.74
2022-08-30T01:00:49.073Z,95.65
2022-08-30T01:03:17.811Z,95.60
2022-08-30T01:05:48.192Z,95.64
2022-08-30T01:08:16.796Z,95.68
2022-08-30T01:10:45.356Z,95.64
2022-08-30T01:13:15.683Z,95.60
2022-08-30T01:15:45.820Z,95.58
2022-08-30T01:18:16.903Z,95.52
2022-08-30T01:20:51.782Z,95.38
2022-08-30T01:23:24.453Z,95.36
2022-08-30T01:25:53.958Z,95.22
2022-08-30T01:28:25.093Z,95.14
2022-08-30T01:30:54.243Z,95.25
2022-08-30T01:33:24.284Z,95.17
2022-08-30T01:35:56.984Z,95.14
2022-08-30T01:38:27.927Z,95.12
2022-08-30T01:41:00.857Z,95.21
2022-08-30T01:43:29.394Z,95.11
2022-08-30T01:45:57.834Z,95.02
2022-08-30T01:48:31.282Z,94.84
2022-08-30T01:50:59.832Z,94.83
2022-08-30T01:53:28.983Z,94.72
2022-08-30T01:55:57.569Z,94.73
2022-08-30T01:58:26.069Z,94.77
2022-08-30T02:00:55.286Z,94.82
2022-08-30T02:03:32.282Z,94.59
2022-08-30T02:06:04.501Z,94.52
2022-08-30T02:08:34.527Z,94.36
2022-08-30T02:11:04.062Z,94.29
2022-08-30T02:13:32.602Z,94.23
2022-08-30T02:16:01.000Z,94.22
2022-08-30T02:18:29.820Z,94.33
2022-08-30T02:20:58.177Z,94.22
2022-08-30T02:23:26.824Z,94.21
2022-08-30T02:25:55.585Z,94.17
2022-08-30T02:28:25.226Z,93.99
2022-08-30T02:30:54.405Z,93.99
2022-08-30T02:33:23.209Z,94.04
2022-08-30T02:35:51.608Z,94.10
2022-08-30T02:38:20.280Z,94.03
2022-08-30T02:40:49.108Z,94.20
2022-08-30T02:43:17.901Z,94.09
2022-08-30T02:45:46.769Z,94.17
2022-08-30T02:48:15.304Z,94.14
2022-08-30T02:50:46.086Z,94.03
2022-08-30T02:53:16.212Z,93.78
2022-08-30T02:55:53.291Z,93.55
2022-08-30T02:58:21.722Z,93.53
2022-08-30T03:00:50.428Z,93.38
2022-08-30T03:03:21.574Z,93.03
2022-08-30T03:05:50.030Z,92.86
2022-08-30T03:08:18.638Z,92.74
2022-08-30T03:10:47.177Z,92.43
2022-08-30T03:13:15.747Z,92.34
2022-08-30T03:15:44.259Z,92.15
2022-08-30T03:18:12.693Z,92.22
2022-08-30T03:20:42.265Z,92.29
2022-08-30T03:23:21.613Z,92.10
2022-08-30T03:25:50.386Z,91.99
2022-08-30T03:28:18.990Z,92.04
2022-08-30T03:30:47.430Z,92.19
2022-08-30T03:33:16.282Z,92.21
2022-08-30T03:35:47.435Z,92.23
2022-08-30T03:38:15.833Z,92.42
2022-08-30T03:40:44.388Z,92.53
2022-08-30T03:43:13.020Z,92.52
2022-08-30T03:45:41.864Z,92.70
2022-08-30T03:48:10.397Z,92.78
2022-08-30T03:50:39.980Z,92.92
2022-08-30T03:53:08.440Z,92.87
2022-08-30T03:55:37.001Z,92.86
2022-08-30T03:58:05.516Z,92.82
2022-08-30T04:00:34.012Z,92.82
2022-08-30T04:03:03.007Z,92.73
2022-08-30T04:05:31.634Z,92.73
2022-08-30T04:08:00.249Z,92.65
2022-08-30T04:10:28.719Z,92.62
2022-08-30T04:12:57.086Z,92.63
2022-08-30T04:15:25.555Z,92.78
2022-08-30T04:17:54.433Z,92.68
2022-08-30T04:20:22.888Z,92.68
2022-08-30T04:22:53.437Z,92.58
2022-08-30T04:25:21.908Z,92.55
2022-08-30T04:27:50.341Z,92.45
2022-08-30T04:30:19.505Z,92.46
2022-08-30T04:32:47.959Z,92.43
2022-08-30T04:35:16.462Z,92.45
2022-08-30T04:37:44.870Z,92.45
2022-08-30T04:40:14.662Z,92.53
2022-08-30T04:42:43.761Z,92.56
2022-08-30T04:45:15.358Z,92.39
2022-08-30T04:47:44.423Z,92.47
2022-08-30T04:50:17.027Z,92.35
2022-08-30T04:52:45.858Z,92.15
2022-08-30T04:55:19.498Z,92.20
2022-08-30T04:57:49.383Z,92.24
2022-08-30T05:00:20.222Z,92.28
2022-08-30T05:02:49.657Z,92.33
2022-08-30T05:05:37.940Z,92.26
2022-08-30T05:08:07.373Z,92.08
2022-08-30T05:10:39.486Z,91.98
2022-08-30T05:13:08.376Z,92.00
2022-08-30T05:15:38.208Z,91.75
2022-08-30T05:18:07.990Z,91.61
2022-08-30T05:20:40.520Z,91.77
2022-08-30T05:23:09.260Z,91.69
2022-08-30T05:25:40.288Z,91.43
2022-08-30T05:28:09.342Z,91.29
2022-08-30T05:30:38.015Z,91.34
2022-08-30T05:33:06.512Z,91.29
2022-08-30T05:35:34.998Z,91.22
2022-08-30T05:38:03.801Z,91.13
2022-08-30T05:40:32.589Z,91.19
2022-08-30T05:43:01.066Z,91.03
2022-08-30T05:45:29.818Z,90.81
2022-08-30T05:47:58.239Z,90.77
2022-08-30T05:50:26.669Z,90.73
2022-08-30T05:52:55.077Z,90.54
2022-08-30T05:55:23.489Z,90.57
2022-08-30T05:57:51.938Z,90.18
2022-08-30T06:00:20.824Z,90.31
2022-08-30T06:02:54.315Z,90.19
2022-08-30T06:05:22.921Z,90.21
2022-08-30T06:07:51.277Z,89.93
2022-08-30T06:10:20.038Z,89.70
2022-08-30T06:12:48.578Z,89.59
2022-08-30T06:15:17.210Z,89.17
2022-08-30T06:17:48.488Z,89.10
2022-08-30T06:20:18.264Z,89.37
2022-08-30T06:22:46.740Z,89.12
2022-08-30T06:25:15.836Z,88.71
2022-08-30T06:27:44.313Z,87.98
2022-08-30T06:30:14.449Z,87.91
2022-08-30T06:32:43.035Z,88.32
2022-08-30T06:35:12.143Z,88.11
2022-08-30T06:37:42.129Z,88.28
2022-08-30T06:40:13.810Z,88.16
2022-08-30T06:42:43.598Z,88.17
2022-08-30T06:45:12.522Z,87.73
2022-08-30T06:47:40.970Z,87.29
2022-08-30T06:50:12.148Z,86.97
2022-08-30T06:52:42.469Z,86.67
2022-08-30T06:55:13.709Z,86.82
2022-08-30T06:57:42.194Z,86.45
2022-08-30T07:00:15.081Z,86.20
2022-08-30T07:02:44.392Z,85.37
2022-08-30T07:05:18.007Z,85.87
2022-08-30T07:07:47.774Z,85.94
2022-08-30T07:10:16.404Z,85.32
2022-08-30T07:12:45.179Z,85.34
2022-08-30T07:15:14.305Z,85.06
2022-08-30T07:18:01.512Z,84.51
2022-08-30T07:20:40.318Z,84.41
2022-08-30T07:23:10.225Z,84.59
2022-08-30T07:25:39.749Z,84.52
2022-08-30T07:28:10.126Z,84.06
2022-08-30T07:30:40.662Z,83.45
2022-08-30T07:33:09.652Z,83.08
2022-08-30T07:35:38.112Z,82.45
2022-08-30T07:38:06.488Z,82.52
2022-08-30T07:40:37.665Z,80.98
2022-08-30T07:43:06.420Z,80.60
2022-08-30T07:45:36.522Z,80.64
2022-08-30T07:48:06.414Z,80.34
2022-08-30T07:50:37.209Z,79.97
2022-08-30T07:53:07.997Z,80.13
2022-08-30T07:55:39.997Z,79.91
2022-08-30T07:58:08.653Z,80.24
2022-08-30T08:00:37.071Z,79.58
2022-08-30T08:03:07.504Z,79.33
2022-08-30T08:05:39.134Z,79.84
2022-08-30T08:08:08.318Z,79.75
2022-08-30T08:10:38.408Z,79.28
2022-08-30T08:13:07.120Z,79.34
2022-08-30T08:15:35.614Z,79.32
2022-08-30T08:18:04.921Z,79.02
2022-08-30T08:20:35.001Z,78.90
2022-08-30T08:23:04.171Z,78.49
2022-08-30T08:25:33.474Z,77.85
2022-08-30T08:28:01.973Z,78.22
2022-08-30T08:30:34.932Z,78.85
2022-08-30T08:33:03.958Z,78.99
2022-08-30T08:35:33.068Z,79.03
2022-08-30T08:38:01.551Z,79.06
2022-08-30T08:40:33.097Z,78.79
2022-08-30T08:43:09.648Z,78.40
2022-08-30T08:45:51.181Z,77.46
2022-08-30T08:48:58.193Z,77.07
2022-08-30T08:51:45.130Z,77.72
2022-08-30T08:54:18.800Z,77.74
2022-08-30T08:56:47.450Z,77.25
2022-08-30T08:59:17.312Z,76.25
2022-08-30T09:01:47.862Z,76.69
2022-08-30T09:04:20.629Z,76.07
2022-08-30T09:06:54.880Z,75.70
2022-08-30T09:09:27.950Z,75.49
2022-08-30T09:11:56.329Z,74.93
2022-08-30T09:14:30.310Z,75.19
2022-08-30T09:17:02.791Z,74.82
2022-08-30T09:19:42.024Z,72.33
2022-08-30T09:22:21.152Z,73.61
2022-08-30T09:24:52.180Z,73.17
2022-08-30T09:27:25.233Z,73.63
2022-08-30T09:29:59.750Z,74.33
2022-08-30T09:32:32.412Z,73.46
2022-08-30T09:35:01.371Z,73.00
2022-08-30T09:37:37.420Z,72.34
2022-08-30T09:40:17.020Z,71.92
2022-08-30T09:43:02.458Z,71.94
2022-08-30T09:45:35.869Z,72.65
2022-08-30T09:48:23.027Z,72.20
2022-08-30T09:51:04.223Z,72.04
2022-08-30T09:53:36.117Z,71.93
2022-08-30T09:56:10.366Z,71.99
2022-08-30T09:59:02.571Z,70.75
2022-08-30T10:01:36.459Z,69.73
2022-08-30T10:04:13.411Z,68.01
2022-08-30T10:06:49.309Z,66.89
2022-08-30T10:09:27.600Z,64.99
2022-08-30T10:12:10.672Z,63.87
2022-08-30T10:14:50.988Z,64.40
2022-08-30T10:17:38.283Z,63.82
2022-08-30T10:20:23.348Z,64.59
2022-08-30T10:23:01.984Z,64.67
2022-08-30T10:25:35.583Z,63.96
2022-08-30T10:28:12.120Z,62.99
2022-08-30T10:30:49.879Z,63.72
2022-08-30T10:33:25.912Z,63.40
2022-08-30T10:35:57.278Z,64.07
2022-08-30T10:38:29.262Z,64.61
2022-08-30T10:41:14.938Z,64.82
2022-08-30T10:43:52.679Z,63.66
2022-08-30T10:46:32.536Z,63.48
2022-08-30T10:49:04.314Z,64.24
2022-08-30T10:51:41.662Z,63.93
2022-08-30T10:54:18.460Z,63.19
2022-08-30T10:56:51.215Z,63.77
2022-08-30T10:59:21.008Z,64.34
2022-08-30T11:02:23.067Z,62.87
2022-08-30T11:05:06.760Z,61.02
2022-08-30T11:07:45.176Z,60.49
2022-08-30T11:10:31.924Z,61.18
2022-08-30T11:13:04.595Z,61.93
2022-08-30T11:15:37.163Z,61.33
2022-08-30T11:18:12.830Z,60.72
2022-08-30T11:20:45.205Z,60.49
2022-08-30T11:23:33.128Z,60.73
2022-08-30T11:26:05.049Z,60.28
2022-08-30T11:29:01.788Z,59.91
2022-08-30T11:31:36.909Z,60.04
2022-08-30T11:34:06.911Z,61.14
2022-08-30T11:37:02.573Z,60.29
2022-08-30T11:39:55.303Z,59.87
2022-08-30T11:42:32.574Z,59.59
2022-08-30T11:45:37.363Z,59.93
2022-08-30T11:48:09.392Z,59.94
2022-08-30T11:50:49.838Z,60.48
2022-08-30T11:53:27.757Z,58.19
2022-08-30T11:56:08.091Z,57.96
2022-08-30T11:58:47.801Z,58.65
2022-08-30T12:01:42.102Z,58.44
2022-08-30T12:04:25.496Z,59.62
2022-08-30T12:06:58.587Z,59.87
2022-08-30T12:10:03.019Z,60.13
2022-08-30T12:12:54.861Z,59.87
2022-08-30T12:15:57.465Z,59.69
2022-08-30T12:18:42.631Z,59.19
2022-08-30T12:21:28.195Z,58.85
2022-08-30T12:24:03.619Z,58.97
2022-08-30T12:26:38.088Z,57.82
2022-08-30T12:29:14.578Z,56.00
2022-08-30T12:31:47.253Z,56.55
2022-08-30T12:34:34.749Z,55.93
2022-08-30T12:37:07.458Z,56.05
2022-08-30T12:39:40.129Z,54.92
2022-08-30T12:42:17.650Z,56.23
2022-08-30T12:44:47.613Z,55.54
2022-08-30T12:47:25.005Z,55.59
2022-08-30T12:49:55.719Z,56.59
2022-08-30T12:52:33.157Z,57.51
2022-08-30T12:55:17.767Z,57.33
2022-08-30T12:58:00.783Z,57.51
2022-08-30T13:00:32.115Z,58.24
2022-08-30T13:03:03.933Z,56.13
2022-08-30T13:06:13.624Z,54.87
2022-08-30T13:08:55.962Z,54.26
2022-08-30T13:11:29.526Z,54.46
2022-08-30T13:14:30.924Z,54.78
2022-08-30T13:17:20.396Z,53.97
2022-08-30T13:19:59.790Z,54.38
2022-08-30T13:22:30.370Z,53.94
2022-08-30T13:24:59.189Z,53.46
2022-08-30T13:27:29.212Z,54.28
2022-08-30T13:30:06.194Z,54.09
2022-08-30T13:32:38.899Z,54.56
2022-08-30T13:35:10.545Z,55.42
2022-08-30T13:37:49.848Z,54.98
2022-08-30T13:40:22.260Z,54.25
2022-08-30T13:42:50.869Z,53.39
2022-08-30T13:48:10.894Z,53.51
2022-08-30T13:50:39.507Z,54.50
2022-08-30T13:53:08.668Z,54.35
2022-08-30T13:55:40.803Z,53.60
2022-08-30T13:58:09.774Z,53.34
2022-08-30T14:00:42.117Z,53.36
2022-08-30T14:03:12.238Z,54.25
2022-08-30T14:05:52.942Z,55.07
2022-08-30T14:08:48.705Z,54.68
2022-08-30T14:11:20.932Z,54.31
2022-08-30T14:16:45.707Z,54.35
2022-08-30T14:19:15.606Z,55.18
2022-08-30T14:21:48.867Z,54.64
2022-08-30T14:24:20.022Z,54.71
2022-08-30T14:26:51.559Z,54.46
2022-08-30T14:29:25.381Z,55.50
2022-08-30T14:31:54.969Z,55.26
2022-08-30T14:34:23.860Z,55.47
2022-08-30T14:36:52.370Z,55.67
2022-08-30T14:39:22.100Z,55.71
2022-08-30T14:41:53.200Z,55.51
2022-08-30T14:44:22.815Z,55.88
2022-08-30T14:46:52.574Z,56.43
2022-08-30T14:49:22.372Z,56.48
2022-08-30T14:51:52.267Z,56.80
2022-08-30T14:54:23.686Z,57.39
2022-08-30T14:56:54.868Z,58.51
2022-08-30T14:59:24.801Z,59.48
2022-08-30T15:01:54.564Z,60.68
2022-08-30T15:04:24.667Z,61.17
2022-08-30T15:06:53.777Z,61.63
2022-08-30T15:09:23.929Z,62.07
2022-08-30T15:11:58.719Z,62.48
2022-08-30T15:14:31.276Z,62.86
2022-08-30T15:17:02.149Z,62.98
2022-08-30T15:19:31.821Z,63.26
2022-08-30T15:22:01.930Z,63.20
2022-08-30T15:24:31.604Z,63.52
2022-08-30T15:27:01.106Z,63.05
2022-08-30T15:29:31.489Z,63.46
2022-08-30T15:32:05.433Z,64.03
2022-08-30T15:34:34.543Z,64.42
2022-08-30T15:37:04.392Z,64.75
2022-08-30T15:39:33.458Z,65.08
2022-08-30T15:42:02.466Z,65.13
2022-08-30T15:44:32.372Z,64.99
2022-08-30T15:47:03.231Z,65.42
2022-08-30T15:49:31.823Z,65.86
2022-08-30T15:52:03.575Z,65.62
2022-08-30T15:54:32.462Z,65.66
2022-08-30T15:57:29.505Z,65.93
2022-08-30T15:59:58.338Z,66.09
2022-08-30T16:02:27.897Z,65.89
2022-08-30T16:04:56.569Z,66.12
2022-08-30T16:07:25.020Z,66.44
2022-08-30T16:09:54.165Z,66.42
2022-08-30T16:12:23.346Z,66.58
2022-08-30T16:14:55.198Z,66.66
2022-08-30T16:17:23.851Z,66.69
2022-08-30T16:19:55.739Z,67.14
2022-08-30T16:22:27.065Z,67.33
2022-08-30T16:24:56.982Z,67.69
2022-08-30T16:27:30.644Z,67.75
2022-08-30T16:29:59.670Z,68.21
2022-08-30T16:32:28.512Z,68.29
2022-08-30T16:34:58.004Z,68.23
2022-08-30T16:37:27.791Z,68.33
2022-08-30T16:39:57.549Z,68.68
2022-08-30T16:42:26.059Z,68.80
2022-08-30T16:44:56.131Z,68.58
2022-08-30T16:47:24.900Z,68.62
2022-08-30T16:49:53.447Z,68.62
2022-08-30T16:52:23.134Z,68.81
2022-08-30T16:54:52.247Z,69.04
2022-08-30T16:57:21.030Z,69.52
2022-08-30T16:59:50.973Z,69.49
2022-08-30T17:02:22.370Z,69.66
2022-08-30T17:04:53.107Z,69.89
2022-08-30T17:07:22.522Z,70.00
2022-08-30T17:09:51.422Z,70.34
2022-08-30T17:12:19.881Z,70.56
2022-08-30T17:14:48.342Z,70.64
2022-08-30T17:17:19.342Z,71.02
2022-08-30T17:19:51.356Z,71.04
2022-08-30T17:22:21.457Z,71.43
2022-08-30T17:24:51.693Z,71.66
2022-08-30T17:27:21.534Z,71.79
2022-08-30T17:29:50.793Z,71.64
2022-08-30T17:32:19.546Z,71.85
2022-08-30T17:34:49.024Z,71.96
2022-08-30T17:37:19.832Z,71.59
2022-08-30T17:39:49.371Z,71.18
2022-08-30T17:42:18.128Z,71.05
2022-08-30T17:44:46.613Z,71.06
2022-08-30T17:47:17.697Z,71.24
2022-08-30T17:49:47.891Z,71.24
2022-08-30T17:52:24.157Z,71.21
2022-08-30T17:54:52.921Z,71.27
2022-08-30T17:57:21.395Z,71.16
2022-08-30T17:59:51.256Z,71.24
2022-08-30T18:02:22.785Z,71.38
2022-08-30T18:04:59.848Z,71.54
2022-08-30T18:07:28.890Z,71.65
2022-08-30T18:09:57.398Z,71.81
2022-08-30T18:12:28.086Z,71.88
2022-08-30T18:14:56.570Z,71.99
2022-08-30T18:17:25.255Z,72.29
2022-08-30T18:19:53.785Z,72.77
2022-08-30T18:22:22.417Z,72.88
2022-08-30T18:24:50.831Z,73.00
2022-08-30T18:27:19.800Z,73.15
2022-08-30T18:29:48.200Z,73.49
2022-08-30T18:32:16.704Z,73.75
2022-08-30T18:34:45.873Z,74.07
2022-08-30T18:37:14.406Z,74.11
2022-08-30T18:39:47.693Z,74.08
2022-08-30T18:42:16.605Z,74.54
2022-08-30T18:44:47.047Z,74.76
2022-08-30T18:47:18.861Z,74.81
2022-08-30T18:49:53.178Z,74.98
2022-08-30T18:52:22.617Z,75.34
2022-08-30T18:55:19.451Z,75.28
2022-08-30T19:00:28.872Z,75.60
2022-08-30T19:02:58.375Z,75.87
2022-08-30T19:05:26.890Z,75.89
2022-08-30T19:07:58.969Z,75.87
2022-08-30T19:10:27.919Z,75.83
2022-08-30T19:12:59.162Z,76.06
2022-08-30T19:15:28.173Z,76.16
2022-08-30T19:17:57.303Z,76.29
2022-08-30T19:20:27.705Z,76.54
2022-08-30T19:23:09.526Z,76.81
2022-08-30T19:25:40.996Z,76.75
2022-08-30T19:28:11.437Z,76.96
2022-08-30T19:30:40.317Z,77.20
2022-08-30T19:33:09.322Z,77.28
2022-08-30T19:35:40.188Z,77.31
2022-08-30T19:38:08.681Z,77.52
2022-08-30T19:40:37.364Z,77.91
2022-08-30T19:43:06.300Z,77.96
2022-08-30T19:45:37.670Z,77.93
2022-08-30T19:48:06.651Z,78.20
2022-08-30T19:50:35.267Z,78.40
2022-08-30T19:53:05.988Z,78.36
2022-08-30T19:55:36.593Z,78.70
2022-08-30T19:58:05.327Z,78.74
2022-08-30T20:00:33.884Z,78.84
2022-08-30T20:03:05.431Z,78.99
2022-08-30T20:05:35.496Z,78.91
2022-08-30T20:08:04.894Z,79.06
2022-08-30T20:10:33.884Z,79.26
2022-08-30T20:13:02.799Z,79.45
2022-08-30T20:15:33.753Z,79.43
2022-08-30T20:18:05.913Z,79.62
2022-08-30T20:20:36.502Z,80.07
2022-08-30T20:23:06.110Z,79.96
2022-08-30T20:25:35.468Z,80.14
2022-08-30T20:28:06.275Z,80.25
2022-08-30T20:30:34.922Z,80.35
2022-08-30T20:33:08.493Z,80.45
2022-08-30T20:35:38.503Z,80.57
2022-08-30T20:38:07.016Z,80.64
2022-08-30T20:40:38.050Z,80.95
2022-08-30T20:43:07.003Z,81.10
2022-08-30T20:45:35.500Z,81.07
2022-08-30T20:48:04.612Z,81.22
2022-08-30T20:50:33.085Z,81.22
2022-08-30T20:53:01.502Z,81.31
2022-08-30T20:55:30.407Z,81.27
2022-08-30T21:01:24.366Z,81.55
2022-08-30T21:03:53.310Z,81.42
2022-08-30T21:06:22.412Z,81.35
2022-08-30T21:08:51.916Z,81.28
2022-08-30T21:11:48.223Z,81.59
2022-08-30T21:14:17.845Z,81.82
2022-08-30T21:16:46.399Z,82.04
2022-08-30T21:19:15.020Z,81.92
2022-08-30T21:21:44.921Z,81.65
2022-08-30T21:24:13.417Z,81.74
2022-08-30T21:26:42.368Z,81.73
2022-08-30T21:29:11.608Z,81.62
2022-08-30T21:31:40.072Z,82.10
2022-08-30T21:34:08.917Z,82.08
2022-08-30T21:36:46.388Z,82.47
2022-08-30T21:39:20.876Z,82.28
2022-08-30T21:41:53.895Z,82.15
2022-08-30T21:44:24.777Z,82.23
2022-08-30T21:46:54.001Z,82.33
2022-08-30T21:49:24.602Z,82.90
2022-08-30T21:51:57.536Z,83.17
2022-08-30T21:54:28.361Z,83.14
2022-08-30T21:57:02.110Z,83.43
2022-08-30T21:59:31.302Z,83.73
2022-08-30T22:02:00.711Z,83.87
2022-08-30T22:04:30.761Z,84.13
2022-08-30T22:07:02.725Z,84.23
2022-08-30T22:09:46.176Z,84.31
2022-08-30T22:12:15.102Z,84.30
2022-08-30T22:14:43.979Z,84.24
2022-08-30T22:17:13.737Z,84.16
2022-08-30T22:19:42.653Z,84.16
2022-08-30T22:22:12.859Z,84.31
2022-08-30T22:24:41.751Z,84.26
2022-08-30T22:27:10.653Z,84.59
2022-08-30T22:29:40.044Z,84.52
2022-08-30T22:32:09.427Z,84.55
2022-08-30T22:34:38.640Z,84.73
2022-08-30T22:37:07.559Z,84.88
2022-08-30T22:39:36.607Z,84.88
2022-08-30T22:42:07.282Z,85.04
2022-08-30T22:44:36.953Z,85.35
2022-08-30T22:47:07.510Z,85.60
2022-08-30T22:49:36.423Z,85.88
2022-08-30T22:52:06.107Z,85.84
2022-08-30T22:58:18.376Z,86.23
2022-08-30T23:00:55.209Z,86.35
2022-08-30T23:03:24.559Z,86.37
2022-08-30T23:05:53.506Z,86.53
2022-08-30T23:08:22.498Z,86.60
2022-08-30T23:10:50.877Z,86.78
2022-08-30T23:13:21.977Z,86.84
2022-08-30T23:15:50.422Z,87.09
2022-08-30T23:18:18.822Z,87.06
2022-08-30T23:20:47.413Z,87.18
2022-08-30T23:23:34.268Z,87.33
2022-08-30T23:26:21.344Z,87.52
2022-08-30T23:29:07.979Z,87.64
2022-08-30T23:31:55.130Z,87.66
2022-08-30T23:34:42.169Z,87.67
2022-08-30T23:37:28.770Z,87.81
2022-08-30T23:40:15.524Z,87.97
2022-08-30T23:43:02.663Z,87.84
2022-08-30T23:45:49.968Z,88.04
2022-08-30T23:48:37.017Z,88.25
2022-08-30T23:51:24.113Z,88.24
2022-08-30T23:54:11.191Z,88.35
2022-08-30T23:56:58.749Z,88.45
2022-08-30T23:59:45.762Z,88.58
